createdAt,value
2023-04-07T06:39:02.863Z,35.37
2023-04-07T06:39:14.599Z,35.66
2023-04-07T06:39:24.129Z,35.76
2023-04-07T06:39:34.026Z,35.97
2023-04-07T06:39:44.320Z,35.86
2023-04-07T06:39:54.403Z,35.97
2023-04-07T06:40:04.559Z,36.17
2023-04-07T06:40:14.728Z,36.49
2023-04-07T06:40:24.860Z,36.80
2023-04-07T06:40:34.946Z,36.40
2023-04-07T06:40:44.958Z,37.23
2023-04-07T06:40:55.087Z,37.63
2023-04-07T06:41:05.409Z,37.54
2023-04-07T06:41:16.041Z,36.72
2023-04-07T06:41:25.567Z,36.21
2023-04-07T06:41:35.522Z,35.89
2023-04-07T06:41:45.697Z,36.00
2023-04-07T06:41:55.946Z,35.88
2023-04-07T06:42:06.229Z,35.78
2023-04-07T06:42:16.060Z,35.37
2023-04-07T06:42:26.307Z,35.27
2023-04-07T06:42:36.326Z,35.27
2023-04-07T06:42:46.516Z,35.58
2023-04-07T06:42:56.560Z,38.23
2023-04-07T06:43:06.704Z,41.71
2023-04-07T06:43:16.789Z,41.61
2023-04-07T06:43:26.899Z,40.17
2023-04-07T06:43:37.057Z,40.09
2023-04-07T06:43:47.452Z,41.11
2023-04-07T06:43:57.326Z,40.50
2023-04-07T06:44:09.398Z,38.98
2023-04-07T06:44:17.516Z,37.04
2023-04-07T06:44:27.691Z,36.22
2023-04-07T06:44:37.803Z,36.02
2023-04-07T06:44:47.958Z,37.14
2023-04-07T06:44:58.043Z,39.19
2023-04-07T06:45:08.203Z,40.72
2023-04-07T06:45:18.188Z,39.50
2023-04-07T06:45:28.378Z,42.77
2023-04-07T06:45:38.443Z,46.04
2023-04-07T06:45:48.672Z,46.97
2023-04-07T06:45:58.702Z,45.94
2023-04-07T06:46:08.923Z,44.00
2023-04-07T06:46:18.876Z,43.18
2023-04-07T06:46:29.108Z,41.44
2023-04-07T06:46:39.997Z,40.93
2023-04-07T06:46:49.261Z,41.13
2023-04-07T06:46:59.334Z,40.21
2023-04-07T06:47:09.528Z,39.39
2023-04-07T06:47:19.575Z,38.04
2023-04-07T06:47:29.731Z,37.54
2023-04-07T06:47:49.998Z,37.63
2023-04-07T06:47:59.967Z,38.25
2023-04-07T06:48:10.162Z,37.93
2023-04-07T06:48:20.191Z,38.13
2023-04-07T06:48:30.288Z,40.69
2023-04-07T06:48:40.349Z,41.89
2023-04-07T06:48:50.457Z,42.94
2023-04-07T06:49:00.462Z,45.90
2023-04-07T06:49:10.631Z,46.41
2023-04-07T06:49:20.620Z,47.53
2023-04-07T06:49:31.712Z,48.15
2023-04-07T06:49:41.006Z,48.68
2023-04-07T06:49:51.108Z,47.15
2023-04-07T06:50:01.187Z,47.05
2023-04-07T06:50:12.044Z,47.45
2023-04-07T06:50:21.470Z,47.17
2023-04-07T06:50:41.661Z,46.15
2023-04-07T06:50:51.756Z,44.92
2023-04-07T06:51:01.976Z,47.38
2023-04-07T06:51:12.050Z,47.68
2023-04-07T06:51:22.150Z,47.68
2023-04-07T06:51:32.438Z,46.97
2023-04-07T06:51:42.496Z,44.51
2023-04-07T06:51:52.592Z,42.77
2023-04-07T06:52:02.650Z,40.64
2023-04-07T06:52:12.807Z,40.44
2023-04-07T06:52:22.905Z,44.73
2023-04-07T06:52:33.086Z,47.71
2023-04-07T06:52:43.138Z,47.19
2023-04-07T06:52:53.245Z,47.30
2023-04-07T06:53:03.413Z,46.89
2023-04-07T06:53:13.665Z,46.30
2023-04-07T06:53:23.748Z,46.27
2023-04-07T06:53:33.767Z,46.68
2023-04-07T06:53:43.916Z,48.01
2023-04-07T06:53:54.065Z,47.81
2023-04-07T06:54:04.148Z,46.99
2023-04-07T06:54:14.468Z,45.74
2023-04-07T06:54:24.585Z,44.71
2023-04-07T06:54:34.607Z,43.28
2023-04-07T06:54:44.712Z,42.03
2023-04-07T06:54:54.916Z,40.60
2023-04-07T06:55:04.955Z,39.78
2023-04-07T06:55:15.053Z,39.46
2023-04-07T06:55:25.095Z,39.97
2023-04-07T06:55:35.423Z,39.46
2023-04-07T06:55:45.422Z,39.14
2023-04-07T06:55:55.614Z,38.21
2023-04-07T06:56:05.695Z,38.21
2023-04-07T06:56:16.110Z,37.40
2023-04-07T06:56:26.079Z,37.81
2023-04-07T06:56:36.105Z,37.91
2023-04-07T06:56:46.170Z,37.40
2023-04-07T06:56:56.384Z,37.29
2023-04-07T06:57:06.405Z,37.21
2023-04-07T06:57:16.613Z,38.13
2023-04-07T06:57:26.790Z,39.15
2023-04-07T06:57:36.936Z,40.89
2023-04-07T06:57:46.953Z,41.09
2023-04-07T06:57:57.184Z,39.56
2023-04-07T06:58:07.229Z,38.75
2023-04-07T06:58:17.280Z,38.56
2023-04-07T06:58:29.083Z,39.28
2023-04-07T06:58:37.512Z,38.15
2023-04-07T06:58:47.659Z,37.33
2023-04-07T06:58:57.941Z,36.92
2023-04-07T06:59:07.885Z,36.72
2023-04-07T06:59:18.174Z,36.53
2023-04-07T06:59:29.119Z,37.04
2023-04-07T06:59:38.336Z,38.37
2023-04-07T06:59:48.380Z,38.88
2023-04-07T06:59:58.610Z,38.57
2023-04-07T07:00:08.626Z,38.47
2023-04-07T07:00:18.851Z,38.98
2023-04-07T07:00:39.084Z,42.46
2023-04-07T07:00:49.235Z,41.95
2023-04-07T07:00:59.341Z,40.83
2023-04-07T07:01:09.416Z,40.72
2023-04-07T07:01:19.593Z,41.13
2023-04-07T07:01:29.677Z,40.83
2023-04-07T07:01:39.968Z,40.01
2023-04-07T07:01:50.001Z,39.39
2023-04-07T07:02:00.104Z,39.39
2023-04-07T07:02:10.340Z,38.98
2023-04-07T07:02:20.331Z,39.29
2023-04-07T07:02:30.465Z,38.88
2023-04-07T07:02:40.631Z,37.96
2023-04-07T07:02:50.677Z,37.76
2023-04-07T07:03:00.940Z,37.65
2023-04-07T07:03:10.926Z,38.68
2023-04-07T07:03:21.041Z,39.09
2023-04-07T07:03:31.190Z,38.06
2023-04-07T07:03:41.258Z,38.06
2023-04-07T07:03:51.719Z,37.35
2023-04-07T07:04:01.580Z,37.65
2023-04-07T07:04:11.817Z,37.45
2023-04-07T07:04:21.947Z,38.57
2023-04-07T07:04:31.842Z,38.78
2023-04-07T07:04:42.065Z,39.80
2023-04-07T07:04:52.073Z,41.13
2023-04-07T07:05:02.187Z,42.67
2023-04-07T07:05:12.690Z,43.49
2023-04-07T07:05:22.698Z,44.41
2023-04-07T07:05:34.187Z,42.26
2023-04-07T07:05:43.814Z,41.34
2023-04-07T07:05:53.753Z,40.83
2023-04-07T07:06:04.443Z,40.93
2023-04-07T07:06:13.087Z,41.22
2023-04-07T07:06:23.307Z,40.91
2023-04-07T07:06:43.589Z,40.70
2023-04-07T07:06:53.764Z,40.48
2023-04-07T07:07:03.894Z,40.89
2023-04-07T07:07:14.063Z,40.46
2023-04-07T07:07:24.153Z,39.44
2023-04-07T07:07:34.251Z,38.52
2023-04-07T07:07:44.519Z,37.59
2023-04-07T07:07:54.606Z,37.89
2023-04-07T07:08:04.637Z,39.12
2023-04-07T07:08:14.819Z,38.18
2023-04-07T07:08:25.787Z,37.46
2023-04-07T07:08:35.138Z,36.55
2023-04-07T07:08:45.496Z,35.93
2023-04-07T07:08:55.303Z,36.14
2023-04-07T07:09:05.411Z,36.32
2023-04-07T07:09:15.566Z,36.63
2023-04-07T07:09:25.857Z,36.53
2023-04-07T07:09:36.588Z,36.31
2023-04-07T07:09:45.977Z,35.49
2023-04-07T07:09:56.008Z,34.97
2023-04-07T07:10:06.078Z,34.56
2023-04-07T07:10:16.276Z,33.95
2023-04-07T07:10:27.140Z,33.74
2023-04-07T07:14:40.952Z,39.40
2023-04-07T07:14:52.676Z,39.30
2023-04-07T07:15:02.031Z,39.00
2023-04-07T07:15:12.089Z,37.98
2023-04-07T07:15:22.360Z,37.45
2023-04-07T07:15:32.408Z,36.83
2023-04-07T07:15:42.591Z,36.43
2023-04-07T07:15:52.786Z,36.12
2023-04-07T07:16:02.779Z,35.82
2023-04-07T07:16:12.875Z,35.51
2023-04-07T07:16:23.072Z,35.30
2023-04-07T07:16:33.190Z,35.20
2023-04-07T07:16:43.281Z,35.41
2023-04-07T07:16:53.411Z,35.51
2023-04-07T07:17:03.509Z,35.00
2023-04-07T07:17:13.664Z,34.69
2023-04-07T07:17:23.727Z,34.48
2023-04-07T07:17:33.788Z,34.28
2023-04-07T07:17:44.001Z,34.28
2023-04-07T07:17:54.151Z,34.48
2023-04-07T07:18:04.295Z,34.28
2023-04-07T07:18:14.346Z,34.27
2023-04-07T07:18:24.460Z,34.58
2023-04-07T07:18:34.537Z,34.78
2023-04-07T07:18:44.666Z,34.67
2023-04-07T07:18:54.835Z,34.27
2023-04-07T07:19:04.916Z,34.05
2023-04-07T07:19:14.996Z,33.95
2023-04-07T07:19:25.203Z,34.05
2023-04-07T07:19:35.386Z,34.05
2023-04-07T07:19:45.480Z,34.05
2023-04-07T07:19:55.594Z,33.93
2023-04-07T07:20:05.741Z,33.83
2023-04-07T07:20:15.720Z,33.73
2023-04-07T07:20:25.943Z,33.62
2023-04-07T07:23:21.782Z,33.94
2023-04-07T07:23:32.739Z,33.22
2023-04-07T07:23:43.721Z,31.90
2023-04-07T07:23:52.995Z,30.36
2023-04-07T07:24:03.099Z,29.85
2023-04-07T07:24:13.129Z,29.74
2023-04-07T07:24:23.315Z,30.64
2023-04-07T07:24:33.428Z,32.56
2023-04-07T07:24:53.730Z,31.23
2023-04-07T07:25:03.917Z,30.41
2023-04-07T07:25:14.040Z,29.50
2023-04-07T07:25:24.107Z,29.00
2023-04-07T07:25:34.190Z,28.88
2023-04-07T07:25:44.366Z,28.88
2023-04-07T07:25:54.517Z,28.56
2023-04-07T07:26:04.626Z,28.56
2023-04-07T07:26:14.676Z,27.76
2023-04-07T07:26:24.955Z,27.66
2023-04-07T07:26:34.923Z,27.55
2023-04-07T07:26:45.144Z,27.24
2023-04-07T07:26:55.287Z,27.14
2023-04-07T07:27:05.476Z,28.05
2023-04-07T07:27:15.495Z,27.84
2023-04-07T07:27:25.755Z,28.05
2023-04-07T07:27:35.757Z,27.43
2023-04-07T07:27:45.937Z,27.83
2023-04-07T07:27:56.001Z,29.03
2023-04-07T07:28:06.157Z,27.72
2023-04-07T07:28:16.187Z,26.71
2023-04-07T07:28:26.429Z,27.10
2023-04-07T07:28:36.444Z,26.80
2023-04-07T07:28:46.590Z,26.90
2023-04-07T07:28:56.740Z,27.19
2023-04-07T07:29:06.821Z,27.68
2023-04-07T07:29:16.974Z,26.87
2023-04-07T07:29:27.162Z,27.16
2023-04-07T07:29:37.326Z,27.87
2023-04-07T07:29:47.356Z,26.26
2023-04-07T07:29:57.515Z,25.35
2023-04-07T07:30:07.596Z,25.15
2023-04-07T07:30:17.702Z,24.95
2023-04-07T07:30:27.950Z,24.44
2023-04-07T07:30:38.093Z,24.35
2023-04-07T07:30:48.149Z,24.15
2023-04-07T07:30:58.213Z,24.44
2023-04-07T07:31:08.443Z,24.56
2023-04-07T07:31:18.629Z,24.36
2023-04-07T07:31:28.695Z,24.76
2023-04-07T07:31:38.688Z,24.77
2023-04-07T07:31:48.901Z,24.77
2023-04-07T07:31:58.958Z,24.98
2023-04-07T07:32:09.123Z,24.87
2023-04-07T07:32:19.202Z,24.86
2023-04-07T07:32:29.318Z,24.86
2023-04-07T07:32:39.408Z,24.96
2023-04-07T07:32:49.575Z,24.76
2023-04-07T07:32:59.746Z,24.76
2023-04-07T07:33:09.956Z,24.67
2023-04-07T07:33:19.986Z,24.77
2023-04-07T07:33:30.164Z,24.98
2023-04-07T07:33:40.232Z,25.27
2023-04-07T07:33:50.633Z,25.67
2023-04-07T07:34:00.504Z,25.87
2023-04-07T07:34:10.671Z,25.46
2023-04-07T07:34:20.763Z,25.38
2023-04-07T07:34:30.971Z,25.68
2023-04-07T07:34:40.920Z,25.49
2023-04-07T07:34:51.217Z,25.20
2023-04-07T07:35:01.412Z,25.30
2023-04-07T07:35:11.576Z,25.60
2023-04-07T07:35:21.535Z,25.90
2023-04-07T07:35:31.760Z,26.31
2023-04-07T07:35:41.870Z,26.81
2023-04-07T07:35:52.130Z,26.80
2023-04-07T07:36:02.041Z,26.50
2023-04-07T07:36:12.249Z,25.81
2023-04-07T07:36:22.474Z,25.90
2023-04-07T07:36:33.217Z,26.22
2023-04-07T07:36:42.619Z,26.53
2023-04-07T07:36:52.839Z,26.53
2023-04-07T07:37:02.845Z,26.25
2023-04-07T07:37:13.031Z,26.25
2023-04-07T07:37:23.137Z,26.26
2023-04-07T07:37:33.381Z,26.37
2023-04-07T07:37:43.515Z,26.47
2023-04-07T07:37:53.707Z,26.68
2023-04-07T07:38:03.899Z,27.00
2023-04-07T07:38:13.863Z,27.40
2023-04-07T07:38:23.966Z,27.92
2023-04-07T07:38:35.385Z,28.34
2023-04-07T07:38:44.224Z,28.45
2023-04-07T07:38:54.363Z,28.56
2023-04-07T07:39:04.469Z,28.96
2023-04-07T07:39:14.562Z,29.28
2023-04-07T07:39:24.720Z,29.49
2023-04-07T07:39:34.851Z,30.10
2023-04-07T07:39:44.913Z,30.40
2023-04-07T07:39:54.975Z,30.31
2023-04-07T07:40:05.154Z,29.80
2023-04-07T07:40:15.326Z,29.31
2023-04-07T07:40:25.489Z,29.00
2023-04-07T07:40:35.479Z,28.71
2023-04-07T07:40:45.575Z,28.41
2023-04-07T07:40:55.805Z,28.41
2023-04-07T07:41:05.909Z,28.52
2023-04-07T07:41:15.953Z,28.93
2023-04-07T07:41:26.059Z,29.24
2023-04-07T07:41:36.188Z,29.55
2023-04-07T07:41:46.281Z,29.96
2023-04-07T07:41:56.553Z,30.16
2023-04-07T07:42:06.652Z,30.47
2023-04-07T07:42:17.103Z,30.77
2023-04-07T07:42:26.823Z,30.79
2023-04-07T07:42:37.117Z,30.79
2023-04-07T07:42:47.127Z,30.79
2023-04-07T07:42:57.545Z,30.68
2023-04-07T07:43:07.442Z,30.48
2023-04-07T07:43:17.620Z,30.58
2023-04-07T07:43:27.724Z,30.79
2023-04-07T07:43:37.840Z,30.90
2023-04-07T07:43:48.021Z,31.01
2023-04-07T07:43:58.196Z,31.41
2023-04-07T07:44:08.173Z,31.51
2023-04-07T07:44:18.478Z,31.71
2023-04-07T07:44:29.309Z,31.51
2023-04-07T07:44:38.550Z,31.41
2023-04-07T07:44:48.786Z,31.21
2023-04-07T07:44:59.030Z,31.01
2023-04-07T07:45:09.002Z,31.02
2023-04-07T07:45:19.103Z,31.22
2023-04-07T07:45:31.091Z,31.32
2023-04-07T07:45:39.426Z,31.43
2023-04-07T07:45:49.623Z,31.63
2023-04-07T07:45:59.602Z,32.14
2023-04-07T07:46:10.485Z,32.43
2023-04-07T07:46:19.984Z,32.63
2023-04-07T07:46:40.184Z,32.48
2023-04-07T07:46:51.147Z,32.38
2023-04-07T07:47:00.428Z,31.87
2023-04-07T07:47:10.465Z,31.98
2023-04-07T07:47:20.543Z,32.28
2023-04-07T07:47:30.708Z,32.59
2023-04-07T07:47:40.779Z,32.68
2023-04-07T07:48:01.071Z,33.29
2023-04-07T07:48:11.065Z,32.99
2023-04-07T07:48:21.228Z,31.98
2023-04-07T07:48:31.310Z,31.77
2023-04-07T07:48:41.399Z,31.57
2023-04-07T07:48:51.462Z,31.77
2023-04-07T07:49:01.616Z,32.38
2023-04-07T07:49:11.662Z,31.47
2023-04-07T07:49:21.807Z,30.33
2023-04-07T07:49:31.928Z,29.74
2023-04-07T07:49:42.016Z,29.24
2023-04-07T07:49:52.192Z,29.33
2023-04-07T07:50:02.298Z,29.85
2023-04-07T07:50:12.482Z,30.45
2023-04-07T07:50:22.572Z,31.06
2023-04-07T07:50:32.671Z,31.16
2023-04-07T07:50:42.860Z,31.47
2023-04-07T07:50:52.957Z,33.48
2023-04-07T07:51:03.136Z,33.99
2023-04-07T07:51:13.268Z,31.96
2023-04-07T07:51:23.436Z,30.74
2023-04-07T07:51:34.246Z,29.93
2023-04-07T07:51:43.634Z,29.83
2023-04-07T07:51:53.632Z,29.83
2023-04-07T07:52:03.836Z,29.63
2023-04-07T07:52:13.981Z,29.63
2023-04-07T07:52:24.142Z,29.32
2023-04-07T07:52:44.384Z,29.12
2023-04-07T07:52:54.386Z,29.52
2023-04-07T07:53:04.705Z,29.52
2023-04-07T07:53:14.731Z,29.52
2023-04-07T07:53:24.969Z,29.32
